sensor_id;sensor_type;location;lat;lon;timestamp;P1;durP1;ratioP1;P2;durP2;ratioP2
52268;SDS011;38224;50.950;4.100;2023-05-10T00:14:13;23.70;;;11.63;;
52268;SDS011;38224;50.950;4.100;2023-05-10T00:16:38;21.83;;;10.73;;
52268;SDS011;38224;50.950;4.100;2023-05-10T00:19:04;23.77;;;12.40;;
52268;SDS011;38224;50.950;4.100;2023-05-10T00:21:29;24.30;;;11.50;;
52268;SDS011;38224;50.950;4.100;2023-05-10T00:23:54;20.25;;;11.48;;
52268;SDS011;38224;50.950;4.100;2023-05-10T00:26:20;25.48;;;11.25;;
52268;SDS011;38224;50.950;4.100;2023-05-10T00:28:46;22.67;;;11.65;;
52268;SDS011;38224;50.950;4.100;2023-05-10T00:31:11;19.08;;;11.13;;
52268;SDS011;38224;50.950;4.100;2023-05-10T00:33:36;22.80;;;11.65;;
52268;SDS011;38224;50.950;4.100;2023-05-10T00:36:02;23.53;;;11.53;;
52268;SDS011;38224;50.950;4.100;2023-05-10T00:38:27;25.80;;;11.75;;
52268;SDS011;38224;50.950;4.100;2023-05-10T00:40:52;20.70;;;11.18;;
52268;SDS011;38224;50.950;4.100;2023-05-10T00:43:18;25.33;;;12.18;;
52268;SDS011;38224;50.950;4.100;2023-05-10T00:45:43;24.25;;;11.20;;
52268;SDS011;38224;50.950;4.100;2023-05-10T00:48:08;24.10;;;11.20;;
52268;SDS011;38224;50.950;4.100;2023-05-10T00:50:34;24.45;;;11.60;;
52268;SDS011;38224;50.950;4.100;2023-05-10T00:52:59;21.73;;;11.07;;
52268;SDS011;38224;50.950;4.100;2023-05-10T00:55:25;24.77;;;11.57;;
52268;SDS011;38224;50.950;4.100;2023-05-10T00:57:51;19.58;;;10.88;;
52268;SDS011;38224;50.950;4.100;2023-05-10T01:00:17;18.42;;;11.38;;
52268;SDS011;38224;50.950;4.100;2023-05-10T01:02:44;22.73;;;12.25;;
52268;SDS011;38224;50.950;4.100;2023-05-10T01:05:09;27.98;;;12.50;;
52268;SDS011;38224;50.950;4.100;2023-05-10T01:07:34;23.20;;;11.55;;
52268;SDS011;38224;50.950;4.100;2023-05-10T01:10:00;26.75;;;13.23;;
52268;SDS011;38224;50.950;4.100;2023-05-10T01:12:25;26.35;;;12.75;;
52268;SDS011;38224;50.950;4.100;2023-05-10T01:14:51;25.15;;;13.68;;
52268;SDS011;38224;50.950;4.100;2023-05-10T01:17:16;27.17;;;14.10;;
52268;SDS011;38224;50.950;4.100;2023-05-10T01:19:42;30.70;;;14.38;;
52268;SDS011;38224;50.950;4.100;2023-05-10T01:32:35;30.52;;;16.25;;
52268;SDS011;38224;50.950;4.100;2023-05-10T01:37:52;26.10;;;16.48;;
52268;SDS011;38224;50.950;4.100;2023-05-10T01:42:46;33.00;;;17.98;;
52268;SDS011;38224;50.950;4.100;2023-05-10T01:45:32;28.55;;;16.77;;
52268;SDS011;38224;50.950;4.100;2023-05-10T01:48:03;35.47;;;18.83;;
52268;SDS011;38224;50.950;4.100;2023-05-10T01:50:30;32.03;;;20.73;;
52268;SDS011;38224;50.950;4.100;2023-05-10T01:52:57;28.85;;;19.85;;
52268;SDS011;38224;50.950;4.100;2023-05-10T01:55:24;39.10;;;21.52;;
52268;SDS011;38224;50.950;4.100;2023-05-10T01:57:51;35.03;;;22.35;;
52268;SDS011;38224;50.950;4.100;2023-05-10T02:00:17;37.17;;;22.48;;
52268;SDS011;38224;50.950;4.100;2023-05-10T02:02:47;41.80;;;23.48;;
52268;SDS011;38224;50.950;4.100;2023-05-10T02:05:14;38.20;;;21.75;;
52268;SDS011;38224;50.950;4.100;2023-05-10T02:07:40;39.75;;;22.33;;
52268;SDS011;38224;50.950;4.100;2023-05-10T02:10:06;42.25;;;22.45;;
52268;SDS011;38224;50.950;4.100;2023-05-10T02:12:34;39.65;;;22.40;;
52268;SDS011;38224;50.950;4.100;2023-05-10T02:15:00;39.00;;;22.40;;
52268;SDS011;38224;50.950;4.100;2023-05-10T02:17:27;42.92;;;24.40;;
52268;SDS011;38224;50.950;4.100;2023-05-10T02:19:52;40.17;;;22.77;;
52268;SDS011;38224;50.950;4.100;2023-05-10T02:22:18;41.67;;;22.67;;
52268;SDS011;38224;50.950;4.100;2023-05-10T02:24:44;39.30;;;21.60;;
52268;SDS011;38224;50.950;4.100;2023-05-10T02:27:11;39.75;;;21.50;;
52268;SDS011;38224;50.950;4.100;2023-05-10T02:29:37;42.90;;;22.63;;
52268;SDS011;38224;50.950;4.100;2023-05-10T02:32:03;40.15;;;22.75;;
52268;SDS011;38224;50.950;4.100;2023-05-10T02:34:28;44.40;;;22.15;;
52268;SDS011;38224;50.950;4.100;2023-05-10T02:36:55;39.47;;;21.52;;
52268;SDS011;38224;50.950;4.100;2023-05-10T02:39:21;42.05;;;22.65;;
52268;SDS011;38224;50.950;4.100;2023-05-10T02:41:47;39.58;;;23.23;;
52268;SDS011;38224;50.950;4.100;2023-05-10T02:44:14;39.55;;;22.88;;
52268;SDS011;38224;50.950;4.100;2023-05-10T02:46:40;37.53;;;22.88;;
52268;SDS011;38224;50.950;4.100;2023-05-10T02:49:06;46.25;;;23.58;;
52268;SDS011;38224;50.950;4.100;2023-05-10T02:51:32;39.60;;;24.63;;
52268;SDS011;38224;50.950;4.100;2023-05-10T02:54:03;37.03;;;22.67;;
52268;SDS011;38224;50.950;4.100;2023-05-10T02:56:33;53.70;;;24.43;;
52268;SDS011;38224;50.950;4.100;2023-05-10T02:58:59;37.90;;;22.77;;
52268;SDS011;38224;50.950;4.100;2023-05-10T03:01:24;38.25;;;24.05;;
52268;SDS011;38224;50.950;4.100;2023-05-10T03:03:50;43.13;;;24.83;;
52268;SDS011;38224;50.950;4.100;2023-05-10T03:06:15;40.13;;;23.63;;
52268;SDS011;38224;50.950;4.100;2023-05-10T03:08:41;40.10;;;24.30;;
52268;SDS011;38224;50.950;4.100;2023-05-10T03:13:48;42.35;;;23.27;;
52268;SDS011;38224;50.950;4.100;2023-05-10T03:16:21;40.50;;;24.63;;
52268;SDS011;38224;50.950;4.100;2023-05-10T03:18:50;34.72;;;23.00;;
52268;SDS011;38224;50.950;4.100;2023-05-10T03:21:19;44.20;;;25.10;;
52268;SDS011;38224;50.950;4.100;2023-05-10T03:23:50;35.25;;;23.20;;
52268;SDS011;38224;50.950;4.100;2023-05-10T03:26:17;40.33;;;23.85;;
52268;SDS011;38224;50.950;4.100;2023-05-10T03:28:45;39.08;;;23.45;;
52268;SDS011;38224;50.950;4.100;2023-05-10T03:31:11;39.38;;;23.25;;
52268;SDS011;38224;50.950;4.100;2023-05-10T03:33:45;45.47;;;24.02;;
52268;SDS011;38224;50.950;4.100;2023-05-10T03:36:10;37.50;;;23.17;;
52268;SDS011;38224;50.950;4.100;2023-05-10T03:38:36;36.33;;;22.93;;
52268;SDS011;38224;50.950;4.100;2023-05-10T03:41:01;40.10;;;23.98;;
52268;SDS011;38224;50.950;4.100;2023-05-10T03:43:26;42.53;;;24.80;;
52268;SDS011;38224;50.950;4.100;2023-05-10T03:45:51;39.90;;;24.47;;
52268;SDS011;38224;50.950;4.100;2023-05-10T03:48:17;43.50;;;26.33;;
52268;SDS011;38224;50.950;4.100;2023-05-10T03:50:42;44.42;;;25.52;;
52268;SDS011;38224;50.950;4.100;2023-05-10T03:53:07;41.65;;;24.52;;
52268;SDS011;38224;50.950;4.100;2023-05-10T03:55:33;42.38;;;26.13;;
52268;SDS011;38224;50.950;4.100;2023-05-10T03:58:01;49.08;;;27.55;;
52268;SDS011;38224;50.950;4.100;2023-05-10T04:00:26;45.85;;;27.52;;
52268;SDS011;38224;50.950;4.100;2023-05-10T04:02:51;47.97;;;26.47;;
52268;SDS011;38224;50.950;4.100;2023-05-10T04:05:16;42.87;;;27.20;;
52268;SDS011;38224;50.950;4.100;2023-05-10T04:07:42;48.53;;;27.27;;
52268;SDS011;38224;50.950;4.100;2023-05-10T04:10:10;48.95;;;28.92;;
52268;SDS011;38224;50.950;4.100;2023-05-10T04:12:35;47.15;;;28.23;;
52268;SDS011;38224;50.950;4.100;2023-05-10T04:15:00;46.03;;;26.52;;
52268;SDS011;38224;50.950;4.100;2023-05-10T04:17:26;45.77;;;26.90;;
52268;SDS011;38224;50.950;4.100;2023-05-10T04:19:51;43.53;;;26.25;;
52268;SDS011;38224;50.950;4.100;2023-05-10T04:22:19;50.05;;;28.35;;
52268;SDS011;38224;50.950;4.100;2023-05-10T04:24:45;42.03;;;27.55;;
52268;SDS011;38224;50.950;4.100;2023-05-10T04:27:10;46.00;;;27.20;;
52268;SDS011;38224;50.950;4.100;2023-05-10T04:29:36;45.75;;;28.17;;
52268;SDS011;38224;50.950;4.100;2023-05-10T04:32:01;42.80;;;26.75;;
52268;SDS011;38224;50.950;4.100;2023-05-10T04:34:27;45.50;;;26.30;;
52268;SDS011;38224;50.950;4.100;2023-05-10T04:36:52;43.08;;;25.83;;
52268;SDS011;38224;50.950;4.100;2023-05-10T04:39:17;44.33;;;26.80;;
52268;SDS011;38224;50.950;4.100;2023-05-10T04:41:43;50.65;;;27.10;;
52268;SDS011;38224;50.950;4.100;2023-05-10T04:44:08;48.00;;;27.58;;
52268;SDS011;38224;50.950;4.100;2023-05-10T04:46:33;42.83;;;26.27;;
52268;SDS011;38224;50.950;4.100;2023-05-10T04:48:59;46.00;;;29.17;;
52268;SDS011;38224;50.950;4.100;2023-05-10T04:51:24;44.20;;;26.15;;
52268;SDS011;38224;50.950;4.100;2023-05-10T04:53:49;46.95;;;27.58;;
52268;SDS011;38224;50.950;4.100;2023-05-10T04:56:15;44.33;;;27.20;;
52268;SDS011;38224;50.950;4.100;2023-05-10T04:58:41;42.92;;;28.63;;
52268;SDS011;38224;50.950;4.100;2023-05-10T05:01:07;40.50;;;27.30;;
52268;SDS011;38224;50.950;4.100;2023-05-10T05:03:33;43.20;;;26.35;;
52268;SDS011;38224;50.950;4.100;2023-05-10T05:05:58;43.58;;;26.05;;
52268;SDS011;38224;50.950;4.100;2023-05-10T05:08:23;43.33;;;26.83;;
52268;SDS011;38224;50.950;4.100;2023-05-10T05:10:49;44.10;;;26.17;;
52268;SDS011;38224;50.950;4.100;2023-05-10T05:13:15;46.22;;;26.08;;
52268;SDS011;38224;50.950;4.100;2023-05-10T05:15:40;44.35;;;26.70;;
52268;SDS011;38224;50.950;4.100;2023-05-10T05:18:05;40.08;;;27.38;;
52268;SDS011;38224;50.950;4.100;2023-05-10T05:20:34;49.42;;;26.60;;
52268;SDS011;38224;50.950;4.100;2023-05-10T05:22:59;45.92;;;27.77;;
52268;SDS011;38224;50.950;4.100;2023-05-10T05:25:25;53.50;;;29.35;;
52268;SDS011;38224;50.950;4.100;2023-05-10T05:27:50;52.75;;;27.88;;
52268;SDS011;38224;50.950;4.100;2023-05-10T05:30:15;47.78;;;27.17;;
52268;SDS011;38224;50.950;4.100;2023-05-10T05:32:41;51.00;;;27.80;;
52268;SDS011;38224;50.950;4.100;2023-05-10T05:35:06;41.92;;;27.92;;
52268;SDS011;38224;50.950;4.100;2023-05-10T05:37:32;46.40;;;29.50;;
52268;SDS011;38224;50.950;4.100;2023-05-10T05:39:57;44.50;;;28.15;;
52268;SDS011;38224;50.950;4.100;2023-05-10T05:42:22;51.45;;;28.15;;
52268;SDS011;38224;50.950;4.100;2023-05-10T05:44:48;48.45;;;28.42;;
52268;SDS011;38224;50.950;4.100;2023-05-10T05:47:13;44.00;;;28.50;;
52268;SDS011;38224;50.950;4.100;2023-05-10T05:49:38;47.22;;;28.73;;
52268;SDS011;38224;50.950;4.100;2023-05-10T05:52:04;47.33;;;28.17;;
52268;SDS011;38224;50.950;4.100;2023-05-10T05:54:30;51.95;;;28.70;;
52268;SDS011;38224;50.950;4.100;2023-05-10T05:56:56;50.40;;;30.02;;
52268;SDS011;38224;50.950;4.100;2023-05-10T05:59:22;50.75;;;30.45;;
52268;SDS011;38224;50.950;4.100;2023-05-10T06:01:47;48.25;;;30.60;;
52268;SDS011;38224;50.950;4.100;2023-05-10T06:04:12;52.45;;;31.17;;
52268;SDS011;38224;50.950;4.100;2023-05-10T06:06:38;58.45;;;31.25;;
52268;SDS011;38224;50.950;4.100;2023-05-10T06:09:03;49.43;;;29.20;;
52268;SDS011;38224;50.950;4.100;2023-05-10T06:11:28;52.85;;;29.85;;
52268;SDS011;38224;50.950;4.100;2023-05-10T06:13:54;57.40;;;29.65;;
52268;SDS011;38224;50.950;4.100;2023-05-10T06:16:19;52.10;;;28.33;;
52268;SDS011;38224;50.950;4.100;2023-05-10T06:18:44;51.03;;;27.92;;
52268;SDS011;38224;50.950;4.100;2023-05-10T06:21:10;59.08;;;30.85;;
52268;SDS011;38224;50.950;4.100;2023-05-10T06:23:35;59.08;;;29.05;;
52268;SDS011;38224;50.950;4.100;2023-05-10T06:26:00;58.38;;;29.55;;
52268;SDS011;38224;50.950;4.100;2023-05-10T06:28:26;55.55;;;28.77;;
52268;SDS011;38224;50.950;4.100;2023-05-10T06:30:51;64.57;;;32.45;;
52268;SDS011;38224;50.950;4.100;2023-05-10T06:33:17;68.50;;;34.15;;
52268;SDS011;38224;50.950;4.100;2023-05-10T06:35:42;62.25;;;32.10;;
52268;SDS011;38224;50.950;4.100;2023-05-10T06:38:07;61.08;;;32.53;;
52268;SDS011;38224;50.950;4.100;2023-05-10T06:40:32;62.80;;;31.80;;
52268;SDS011;38224;50.950;4.100;2023-05-10T06:42:58;60.75;;;30.77;;
52268;SDS011;38224;50.950;4.100;2023-05-10T06:45:23;61.80;;;30.63;;
52268;SDS011;38224;50.950;4.100;2023-05-10T06:47:48;64.20;;;31.97;;
52268;SDS011;38224;50.950;4.100;2023-05-10T06:50:13;52.27;;;28.90;;
52268;SDS011;38224;50.950;4.100;2023-05-10T06:52:39;52.70;;;29.17;;
52268;SDS011;38224;50.950;4.100;2023-05-10T06:55:04;54.28;;;28.35;;
52268;SDS011;38224;50.950;4.100;2023-05-10T06:57:30;64.18;;;29.60;;
52268;SDS011;38224;50.950;4.100;2023-05-10T06:59:55;57.38;;;29.95;;
52268;SDS011;38224;50.950;4.100;2023-05-10T07:02:21;55.03;;;29.17;;
52268;SDS011;38224;50.950;4.100;2023-05-10T07:04:47;51.58;;;27.75;;
52268;SDS011;38224;50.950;4.100;2023-05-10T07:07:13;47.08;;;25.90;;
52268;SDS011;38224;50.950;4.100;2023-05-10T07:09:38;51.20;;;26.45;;
52268;SDS011;38224;50.950;4.100;2023-05-10T07:12:04;62.25;;;28.40;;
52268;SDS011;38224;50.950;4.100;2023-05-10T07:14:29;53.38;;;26.98;;
52268;SDS011;38224;50.950;4.100;2023-05-10T07:16:54;55.20;;;26.42;;
52268;SDS011;38224;50.950;4.100;2023-05-10T07:19:20;54.20;;;26.27;;
52268;SDS011;38224;50.950;4.100;2023-05-10T07:21:45;47.75;;;26.52;;
52268;SDS011;38224;50.950;4.100;2023-05-10T07:24:10;53.90;;;27.13;;
52268;SDS011;38224;50.950;4.100;2023-05-10T07:26:36;47.97;;;26.23;;
52268;SDS011;38224;50.950;4.100;2023-05-10T07:29:02;56.35;;;27.20;;
52268;SDS011;38224;50.950;4.100;2023-05-10T07:31:27;56.20;;;26.90;;
52268;SDS011;38224;50.950;4.100;2023-05-10T07:33:52;51.23;;;25.80;;
52268;SDS011;38224;50.950;4.100;2023-05-10T07:36:18;54.05;;;27.80;;
52268;SDS011;38224;50.950;4.100;2023-05-10T07:38:43;51.88;;;26.65;;
52268;SDS011;38224;50.950;4.100;2023-05-10T07:41:09;52.00;;;26.35;;
52268;SDS011;38224;50.950;4.100;2023-05-10T07:43:34;47.17;;;25.95;;
52268;SDS011;38224;50.950;4.100;2023-05-10T07:45:59;51.33;;;25.35;;
52268;SDS011;38224;50.950;4.100;2023-05-10T07:48:25;49.75;;;26.25;;
52268;SDS011;38224;50.950;4.100;2023-05-10T07:50:51;49.30;;;24.85;;
52268;SDS011;38224;50.950;4.100;2023-05-10T07:53:16;48.60;;;27.00;;
52268;SDS011;38224;50.950;4.100;2023-05-10T07:55:41;59.17;;;25.73;;
52268;SDS011;38224;50.950;4.100;2023-05-10T07:58:07;44.38;;;22.48;;
52268;SDS011;38224;50.950;4.100;2023-05-10T08:00:32;46.92;;;24.85;;
52268;SDS011;38224;50.950;4.100;2023-05-10T08:02:57;51.67;;;24.10;;
52268;SDS011;38224;50.950;4.100;2023-05-10T08:05:23;46.25;;;22.20;;
52268;SDS011;38224;50.950;4.100;2023-05-10T08:07:48;46.70;;;22.13;;
52268;SDS011;38224;50.950;4.100;2023-05-10T08:10:13;42.42;;;18.65;;
52268;SDS011;38224;50.950;4.100;2023-05-10T08:12:39;40.78;;;19.05;;
52268;SDS011;38224;50.950;4.100;2023-05-10T08:15:04;37.88;;;19.05;;
52268;SDS011;38224;50.950;4.100;2023-05-10T08:17:30;36.38;;;17.48;;
52268;SDS011;38224;50.950;4.100;2023-05-10T08:19:55;43.95;;;19.45;;
52268;SDS011;38224;50.950;4.100;2023-05-10T08:22:20;34.40;;;18.27;;
52268;SDS011;38224;50.950;4.100;2023-05-10T08:24:46;40.17;;;18.58;;
52268;SDS011;38224;50.950;4.100;2023-05-10T08:27:11;40.22;;;18.48;;
52268;SDS011;38224;50.950;4.100;2023-05-10T08:29:37;37.67;;;16.30;;
52268;SDS011;38224;50.950;4.100;2023-05-10T08:32:02;34.47;;;15.68;;
52268;SDS011;38224;50.950;4.100;2023-05-10T08:34:27;39.80;;;15.93;;
52268;SDS011;38224;50.950;4.100;2023-05-10T08:36:53;30.33;;;13.13;;
52268;SDS011;38224;50.950;4.100;2023-05-10T08:39:18;31.25;;;14.95;;
52268;SDS011;38224;50.950;4.100;2023-05-10T08:41:44;39.05;;;15.30;;
52268;SDS011;38224;50.950;4.100;2023-05-10T08:44:09;33.63;;;15.13;;
52268;SDS011;38224;50.950;4.100;2023-05-10T08:46:35;40.28;;;16.25;;
52268;SDS011;38224;50.950;4.100;2023-05-10T08:49:03;38.05;;;16.23;;
52268;SDS011;38224;50.950;4.100;2023-05-10T08:51:31;36.45;;;15.30;;
52268;SDS011;38224;50.950;4.100;2023-05-10T08:53:57;37.05;;;16.05;;
52268;SDS011;38224;50.950;4.100;2023-05-10T08:56:22;28.00;;;14.23;;
52268;SDS011;38224;50.950;4.100;2023-05-10T08:58:48;33.95;;;15.18;;
52268;SDS011;38224;50.950;4.100;2023-05-10T09:01:14;33.20;;;15.23;;
52268;SDS011;38224;50.950;4.100;2023-05-10T09:03:41;31.75;;;15.45;;
52268;SDS011;38224;50.950;4.100;2023-05-10T09:06:06;35.10;;;14.65;;
52268;SDS011;38224;50.950;4.100;2023-05-10T09:08:32;35.05;;;16.40;;
52268;SDS011;38224;50.950;4.100;2023-05-10T09:10:58;26.15;;;15.38;;
52268;SDS011;38224;50.950;4.100;2023-05-10T09:13:26;32.17;;;15.43;;
52268;SDS011;38224;50.950;4.100;2023-05-10T09:15:51;29.38;;;15.98;;
52268;SDS011;38224;50.950;4.100;2023-05-10T09:18:17;32.88;;;15.85;;
52268;SDS011;38224;50.950;4.100;2023-05-10T09:20:42;31.95;;;14.52;;
52268;SDS011;38224;50.950;4.100;2023-05-10T09:23:08;28.92;;;14.10;;
52268;SDS011;38224;50.950;4.100;2023-05-10T09:25:33;31.75;;;15.00;;
52268;SDS011;38224;50.950;4.100;2023-05-10T09:27:59;30.35;;;14.65;;
52268;SDS011;38224;50.950;4.100;2023-05-10T09:30:28;27.65;;;14.15;;
52268;SDS011;38224;50.950;4.100;2023-05-10T09:32:54;25.10;;;14.10;;
52268;SDS011;38224;50.950;4.100;2023-05-10T09:35:23;24.00;;;13.95;;
52268;SDS011;38224;50.950;4.100;2023-05-10T09:37:49;25.52;;;14.27;;
52268;SDS011;38224;50.950;4.100;2023-05-10T09:40:15;18.88;;;12.10;;
52268;SDS011;38224;50.950;4.100;2023-05-10T09:42:51;22.13;;;11.70;;
52268;SDS011;38224;50.950;4.100;2023-05-10T09:45:16;18.08;;;11.02;;
52268;SDS011;38224;50.950;4.100;2023-05-10T09:47:42;18.33;;;12.02;;
52268;SDS011;38224;50.950;4.100;2023-05-10T09:50:07;16.60;;;11.43;;
52268;SDS011;38224;50.950;4.100;2023-05-10T09:52:45;19.17;;;12.15;;
52268;SDS011;38224;50.950;4.100;2023-05-10T09:55:11;18.00;;;11.93;;
52268;SDS011;38224;50.950;4.100;2023-05-10T09:57:37;22.55;;;12.70;;
52268;SDS011;38224;50.950;4.100;2023-05-10T10:00:02;20.73;;;13.75;;
52268;SDS011;38224;50.950;4.100;2023-05-10T10:02:33;21.15;;;12.32;;
52268;SDS011;38224;50.950;4.100;2023-05-10T10:05:00;22.25;;;12.18;;
52268;SDS011;38224;50.950;4.100;2023-05-10T10:07:26;21.45;;;13.23;;
52268;SDS011;38224;50.950;4.100;2023-05-10T10:09:52;20.08;;;12.05;;
52268;SDS011;38224;50.950;4.100;2023-05-10T10:12:18;22.95;;;13.10;;
52268;SDS011;38224;50.950;4.100;2023-05-10T10:14:45;20.50;;;12.77;;
52268;SDS011;38224;50.950;4.100;2023-05-10T10:17:10;19.33;;;13.18;;
52268;SDS011;38224;50.950;4.100;2023-05-10T10:19:37;23.85;;;12.95;;
52268;SDS011;38224;50.950;4.100;2023-05-10T10:22:02;16.40;;;12.35;;
52268;SDS011;38224;50.950;4.100;2023-05-10T10:24:27;18.98;;;11.63;;
52268;SDS011;38224;50.950;4.100;2023-05-10T10:26:53;16.60;;;11.20;;
52268;SDS011;38224;50.950;4.100;2023-05-10T10:29:39;17.45;;;11.48;;
52268;SDS011;38224;50.950;4.100;2023-05-10T10:34:39;17.63;;;12.00;;
52268;SDS011;38224;50.950;4.100;2023-05-10T10:37:05;17.50;;;10.85;;
52268;SDS011;38224;50.950;4.100;2023-05-10T10:39:31;19.42;;;12.10;;
52268;SDS011;38224;50.950;4.100;2023-05-10T10:41:57;19.17;;;12.02;;
52268;SDS011;38224;50.950;4.100;2023-05-10T10:54:40;21.30;;;14.73;;
52268;SDS011;38224;50.950;4.100;2023-05-10T10:57:10;19.60;;;13.63;;
52268;SDS011;38224;50.950;4.100;2023-05-10T10:59:38;21.73;;;13.55;;
52268;SDS011;38224;50.950;4.100;2023-05-10T11:02:06;23.75;;;13.10;;
52268;SDS011;38224;50.950;4.100;2023-05-10T11:04:41;22.20;;;13.10;;
52268;SDS011;38224;50.950;4.100;2023-05-10T11:07:16;20.23;;;14.27;;
52268;SDS011;38224;50.950;4.100;2023-05-10T11:09:41;23.63;;;13.88;;
52268;SDS011;38224;50.950;4.100;2023-05-10T11:12:08;20.03;;;12.63;;
52268;SDS011;38224;50.950;4.100;2023-05-10T11:14:33;20.60;;;13.15;;
52268;SDS011;38224;50.950;4.100;2023-05-10T11:16:58;26.63;;;13.27;;
52268;SDS011;38224;50.950;4.100;2023-05-10T11:19:23;21.80;;;13.43;;
52268;SDS011;38224;50.950;4.100;2023-05-10T11:24:30;22.58;;;13.65;;
52268;SDS011;38224;50.950;4.100;2023-05-10T11:26:55;19.40;;;13.52;;
52268;SDS011;38224;50.950;4.100;2023-05-10T11:29:21;23.35;;;13.60;;
52268;SDS011;38224;50.950;4.100;2023-05-10T11:31:46;20.17;;;13.00;;
52268;SDS011;38224;50.950;4.100;2023-05-10T11:34:33;21.42;;;13.63;;
52268;SDS011;38224;50.950;4.100;2023-05-10T11:36:59;21.33;;;13.05;;
52268;SDS011;38224;50.950;4.100;2023-05-10T11:39:28;20.35;;;12.52;;
52268;SDS011;38224;50.950;4.100;2023-05-10T11:41:54;21.50;;;12.75;;
52268;SDS011;38224;50.950;4.100;2023-05-10T11:44:19;18.60;;;12.32;;
52268;SDS011;38224;50.950;4.100;2023-05-10T11:46:44;23.13;;;13.07;;
52268;SDS011;38224;50.950;4.100;2023-05-10T11:49:09;21.27;;;12.10;;
52268;SDS011;38224;50.950;4.100;2023-05-10T11:51:35;20.58;;;13.02;;
52268;SDS011;38224;50.950;4.100;2023-05-10T11:54:01;21.52;;;13.23;;
52268;SDS011;38224;50.950;4.100;2023-05-10T11:56:27;23.35;;;12.68;;
52268;SDS011;38224;50.950;4.100;2023-05-10T11:58:56;23.27;;;12.77;;
52268;SDS011;38224;50.950;4.100;2023-05-10T12:01:21;17.60;;;12.13;;
52268;SDS011;38224;50.950;4.100;2023-05-10T12:03:48;17.92;;;11.65;;
52268;SDS011;38224;50.950;4.100;2023-05-10T12:06:13;20.55;;;11.80;;
52268;SDS011;38224;50.950;4.100;2023-05-10T12:08:43;18.75;;;12.70;;
52268;SDS011;38224;50.950;4.100;2023-05-10T12:11:09;22.55;;;13.05;;
52268;SDS011;38224;50.950;4.100;2023-05-10T12:13:38;25.13;;;13.32;;
52268;SDS011;38224;50.950;4.100;2023-05-10T12:16:17;20.67;;;12.80;;
52268;SDS011;38224;50.950;4.100;2023-05-10T12:18:42;19.23;;;13.13;;
52268;SDS011;38224;50.950;4.100;2023-05-10T12:21:09;20.93;;;13.47;;
52268;SDS011;38224;50.950;4.100;2023-05-10T12:23:35;23.83;;;14.35;;
52268;SDS011;38224;50.950;4.100;2023-05-10T12:26:04;19.27;;;13.27;;
52268;SDS011;38224;50.950;4.100;2023-05-10T12:28:30;26.00;;;13.80;;
52268;SDS011;38224;50.950;4.100;2023-05-10T12:30:55;24.02;;;13.73;;
52268;SDS011;38224;50.950;4.100;2023-05-10T12:33:22;26.27;;;15.00;;
52268;SDS011;38224;50.950;4.100;2023-05-10T12:35:48;22.27;;;14.30;;
52268;SDS011;38224;50.950;4.100;2023-05-10T12:38:27;20.75;;;15.05;;
52268;SDS011;38224;50.950;4.100;2023-05-10T12:40:54;19.95;;;13.70;;
52268;SDS011;38224;50.950;4.100;2023-05-10T12:43:19;19.02;;;13.90;;
52268;SDS011;38224;50.950;4.100;2023-05-10T12:45:45;23.97;;;15.40;;
52268;SDS011;38224;50.950;4.100;2023-05-10T12:48:13;28.90;;;15.35;;
52268;SDS011;38224;50.950;4.100;2023-05-10T12:50:38;21.08;;;14.18;;
52268;SDS011;38224;50.950;4.100;2023-05-10T12:53:03;23.93;;;14.47;;
52268;SDS011;38224;50.950;4.100;2023-05-10T12:55:31;20.80;;;14.65;;
52268;SDS011;38224;50.950;4.100;2023-05-10T12:57:56;22.40;;;13.97;;
52268;SDS011;38224;50.950;4.100;2023-05-10T13:00:22;25.73;;;14.40;;
52268;SDS011;38224;50.950;4.100;2023-05-10T13:02:47;26.05;;;14.32;;
52268;SDS011;38224;50.950;4.100;2023-05-10T13:05:12;21.60;;;14.73;;
52268;SDS011;38224;50.950;4.100;2023-05-10T13:07:38;23.90;;;14.52;;
52268;SDS011;38224;50.950;4.100;2023-05-10T13:10:03;22.67;;;14.88;;
52268;SDS011;38224;50.950;4.100;2023-05-10T13:12:29;23.15;;;15.07;;
52268;SDS011;38224;50.950;4.100;2023-05-10T13:14:54;21.73;;;14.75;;
52268;SDS011;38224;50.950;4.100;2023-05-10T13:17:20;27.38;;;15.90;;
52268;SDS011;38224;50.950;4.100;2023-05-10T13:19:45;21.45;;;16.10;;
52268;SDS011;38224;50.950;4.100;2023-05-10T13:22:10;26.60;;;17.20;;
52268;SDS011;38224;50.950;4.100;2023-05-10T13:24:36;25.52;;;17.65;;
52268;SDS011;38224;50.950;4.100;2023-05-10T13:27:01;26.15;;;18.23;;
52268;SDS011;38224;50.950;4.100;2023-05-10T13:29:26;25.47;;;17.30;;
52268;SDS011;38224;50.950;4.100;2023-05-10T13:31:52;28.87;;;17.77;;
52268;SDS011;38224;50.950;4.100;2023-05-10T13:34:17;26.45;;;19.27;;
52268;SDS011;38224;50.950;4.100;2023-05-10T13:36:45;28.75;;;18.23;;
52268;SDS011;38224;50.950;4.100;2023-05-10T13:39:10;27.25;;;18.17;;
52268;SDS011;38224;50.950;4.100;2023-05-10T13:41:36;28.92;;;18.83;;
52268;SDS011;38224;50.950;4.100;2023-05-10T13:44:02;28.33;;;17.98;;
52268;SDS011;38224;50.950;4.100;2023-05-10T13:46:27;24.38;;;16.85;;
52268;SDS011;38224;50.950;4.100;2023-05-10T13:48:52;24.33;;;17.13;;
52268;SDS011;38224;50.950;4.100;2023-05-10T13:51:18;26.08;;;18.35;;
52268;SDS011;38224;50.950;4.100;2023-05-10T13:53:43;25.63;;;17.77;;
52268;SDS011;38224;50.950;4.100;2023-05-10T13:56:08;27.03;;;17.27;;
52268;SDS011;38224;50.950;4.100;2023-05-10T13:58:33;22.40;;;15.97;;
52268;SDS011;38224;50.950;4.100;2023-05-10T14:01:00;25.60;;;15.85;;
52268;SDS011;38224;50.950;4.100;2023-05-10T14:03:25;22.95;;;16.02;;
52268;SDS011;38224;50.950;4.100;2023-05-10T14:05:50;23.75;;;15.23;;
52268;SDS011;38224;50.950;4.100;2023-05-10T14:08:16;26.73;;;16.60;;
52268;SDS011;38224;50.950;4.100;2023-05-10T14:10:42;26.52;;;16.77;;
52268;SDS011;38224;50.950;4.100;2023-05-10T14:13:08;23.13;;;17.00;;
52268;SDS011;38224;50.950;4.100;2023-05-10T14:15:33;28.48;;;19.10;;
52268;SDS011;38224;50.950;4.100;2023-05-10T14:17:58;31.38;;;19.88;;
52268;SDS011;38224;50.950;4.100;2023-05-10T14:20:24;32.88;;;19.88;;
52268;SDS011;38224;50.950;4.100;2023-05-10T14:22:49;28.52;;;20.02;;
52268;SDS011;38224;50.950;4.100;2023-05-10T14:25:15;33.60;;;20.77;;
52268;SDS011;38224;50.950;4.100;2023-05-10T14:27:40;34.83;;;21.20;;
52268;SDS011;38224;50.950;4.100;2023-05-10T14:30:05;37.40;;;23.23;;
52268;SDS011;38224;50.950;4.100;2023-05-10T14:32:31;32.25;;;23.23;;
52268;SDS011;38224;50.950;4.100;2023-05-10T14:34:57;29.40;;;17.27;;
52268;SDS011;38224;50.950;4.100;2023-05-10T14:37:22;28.90;;;16.38;;
52268;SDS011;38224;50.950;4.100;2023-05-10T14:39:47;27.63;;;14.52;;
52268;SDS011;38224;50.950;4.100;2023-05-10T14:42:13;25.80;;;14.00;;
52268;SDS011;38224;50.950;4.100;2023-05-10T14:44:38;21.98;;;13.38;;
52268;SDS011;38224;50.950;4.100;2023-05-10T14:47:03;20.27;;;13.57;;
52268;SDS011;38224;50.950;4.100;2023-05-10T14:49:29;33.78;;;14.30;;
52268;SDS011;38224;50.950;4.100;2023-05-10T14:51:54;33.13;;;15.27;;
52268;SDS011;38224;50.950;4.100;2023-05-10T14:54:19;22.05;;;12.55;;
52268;SDS011;38224;50.950;4.100;2023-05-10T14:56:45;24.85;;;11.00;;
52268;SDS011;38224;50.950;4.100;2023-05-10T14:59:11;21.77;;;11.65;;
52268;SDS011;38224;50.950;4.100;2023-05-10T15:01:36;29.53;;;11.23;;